sensor_id;sensor_type;location;lat;lon;timestamp;P1;durP1;ratioP1;P2;durP2;ratioP2
37657;SDS011;23500;53.268;8.308;2024-03-23T00:53:16;1.30;;;1.20;;
37657;SDS011;23500;53.268;8.308;2024-03-23T00:55:43;1.42;;;1.17;;
37657;SDS011;23500;53.268;8.308;2024-03-23T00:58:09;1.73;;;1.63;;
37657;SDS011;23500;53.268;8.308;2024-03-23T01:00:34;3.15;;;1.40;;
37657;SDS011;23500;53.268;8.308;2024-03-23T01:03:00;1.95;;;1.48;;
37657;SDS011;23500;53.268;8.308;2024-03-23T01:05:26;1.83;;;1.38;;
37657;SDS011;23500;53.268;8.308;2024-03-23T01:07:52;1.67;;;1.38;;
37657;SDS011;23500;53.268;8.308;2024-03-23T01:10:17;1.90;;;1.60;;
37657;SDS011;23500;53.268;8.308;2024-03-23T01:12:43;2.20;;;1.40;;
37657;SDS011;23500;53.268;8.308;2024-03-23T01:15:09;1.73;;;1.20;;
37657;SDS011;23500;53.268;8.308;2024-03-23T01:17:34;2.28;;;1.63;;
37657;SDS011;23500;53.268;8.308;2024-03-23T01:20:00;1.30;;;1.20;;
37657;SDS011;23500;53.268;8.308;2024-03-23T01:22:26;1.52;;;1.40;;
37657;SDS011;23500;53.268;8.308;2024-03-23T01:24:52;2.35;;;1.33;;
37657;SDS011;23500;53.268;8.308;2024-03-23T01:27:17;1.55;;;1.33;;
37657;SDS011;23500;53.268;8.308;2024-03-23T01:29:43;1.42;;;1.30;;
37657;SDS011;23500;53.268;8.308;2024-03-23T01:32:09;2.80;;;1.50;;
37657;SDS011;23500;53.268;8.308;2024-03-23T01:34:34;1.63;;;1.45;;
37657;SDS011;23500;53.268;8.308;2024-03-23T01:37:00;1.55;;;1.42;;
37657;SDS011;23500;53.268;8.308;2024-03-23T01:39:26;1.40;;;1.10;;
37657;SDS011;23500;53.268;8.308;2024-03-23T01:41:52;1.85;;;1.45;;
37657;SDS011;23500;53.268;8.308;2024-03-23T01:44:17;1.40;;;1.20;;
37657;SDS011;23500;53.268;8.308;2024-03-23T01:46:43;1.85;;;1.20;;
37657;SDS011;23500;53.268;8.308;2024-03-23T01:49:09;1.98;;;1.40;;
37657;SDS011;23500;53.268;8.308;2024-03-23T01:51:36;1.35;;;1.25;;
37657;SDS011;23500;53.268;8.308;2024-03-23T01:54:02;1.42;;;1.20;;
37657;SDS011;23500;53.268;8.308;2024-03-23T01:56:32;2.03;;;1.50;;
37657;SDS011;23500;53.268;8.308;2024-03-23T01:59:00;1.33;;;1.23;;
37657;SDS011;23500;53.268;8.308;2024-03-23T02:01:32;3.28;;;1.40;;
37657;SDS011;23500;53.268;8.308;2024-03-23T02:04:03;1.85;;;1.40;;
37657;SDS011;23500;53.268;8.308;2024-03-23T02:06:29;2.03;;;1.30;;
37657;SDS011;23500;53.268;8.308;2024-03-23T02:08:55;1.42;;;1.25;;
37657;SDS011;23500;53.268;8.308;2024-03-23T02:11:21;2.33;;;1.50;;
37657;SDS011;23500;53.268;8.308;2024-03-23T02:13:47;1.65;;;1.40;;
37657;SDS011;23500;53.268;8.308;2024-03-23T02:16:13;2.40;;;1.30;;
37657;SDS011;23500;53.268;8.308;2024-03-23T02:18:38;2.58;;;1.33;;
37657;SDS011;23500;53.268;8.308;2024-03-23T02:21:04;1.95;;;1.48;;
37657;SDS011;23500;53.268;8.308;2024-03-23T02:23:30;1.60;;;1.30;;
37657;SDS011;23500;53.268;8.308;2024-03-23T02:25:56;2.17;;;1.30;;
37657;SDS011;23500;53.268;8.308;2024-03-23T02:28:21;1.25;;;1.10;;
37657;SDS011;23500;53.268;8.308;2024-03-23T02:30:50;1.23;;;1.13;;
37657;SDS011;23500;53.268;8.308;2024-03-23T02:33:16;2.00;;;1.20;;
37657;SDS011;23500;53.268;8.308;2024-03-23T02:35:42;1.38;;;1.20;;
37657;SDS011;23500;53.268;8.308;2024-03-23T02:38:10;1.35;;;1.15;;
37657;SDS011;23500;53.268;8.308;2024-03-23T02:40:36;2.65;;;1.20;;
37657;SDS011;23500;53.268;8.308;2024-03-23T02:43:02;2.20;;;1.30;;
37657;SDS011;23500;53.268;8.308;2024-03-23T02:45:30;2.55;;;1.35;;
37657;SDS011;23500;53.268;8.308;2024-03-23T02:47:56;1.75;;;1.30;;
37657;SDS011;23500;53.268;8.308;2024-03-23T02:50:22;2.00;;;1.20;;
37657;SDS011;23500;53.268;8.308;2024-03-23T02:52:48;2.13;;;1.40;;
37657;SDS011;23500;53.268;8.308;2024-03-23T02:55:14;1.58;;;1.20;;
37657;SDS011;23500;53.268;8.308;2024-03-23T02:57:40;1.30;;;1.20;;
37657;SDS011;23500;53.268;8.308;2024-03-23T03:00:06;3.38;;;1.40;;
37657;SDS011;23500;53.268;8.308;2024-03-23T03:02:33;1.88;;;1.10;;
37657;SDS011;23500;53.268;8.308;2024-03-23T03:04:59;1.58;;;1.38;;
37657;SDS011;23500;53.268;8.308;2024-03-23T03:07:25;1.55;;;1.30;;
37657;SDS011;23500;53.268;8.308;2024-03-23T03:09:50;1.58;;;1.20;;
37657;SDS011;23500;53.268;8.308;2024-03-23T03:12:16;1.23;;;1.13;;
37657;SDS011;23500;53.268;8.308;2024-03-23T03:14:42;1.77;;;1.30;;
37657;SDS011;23500;53.268;8.308;2024-03-23T03:17:07;1.30;;;1.20;;
37657;SDS011;23500;53.268;8.308;2024-03-23T03:19:33;1.33;;;1.20;;
37657;SDS011;23500;53.268;8.308;2024-03-23T03:21:59;1.35;;;1.23;;
37657;SDS011;23500;53.268;8.308;2024-03-23T03:24:25;1.85;;;1.20;;
37657;SDS011;23500;53.268;8.308;2024-03-23T03:26:50;1.80;;;1.25;;
37657;SDS011;23500;53.268;8.308;2024-03-23T03:29:16;1.67;;;1.30;;
37657;SDS011;23500;53.268;8.308;2024-03-23T03:31:42;2.00;;;1.30;;
37657;SDS011;23500;53.268;8.308;2024-03-23T03:34:08;1.27;;;1.15;;
37657;SDS011;23500;53.268;8.308;2024-03-23T03:36:34;1.35;;;1.10;;
37657;SDS011;23500;53.268;8.308;2024-03-23T03:39:00;1.75;;;1.30;;
37657;SDS011;23500;53.268;8.308;2024-03-23T03:41:27;1.30;;;1.20;;
37657;SDS011;23500;53.268;8.308;2024-03-23T03:43:53;1.58;;;1.23;;
37657;SDS011;23500;53.268;8.308;2024-03-23T03:46:20;1.95;;;1.38;;
37657;SDS011;23500;53.268;8.308;2024-03-23T03:48:45;1.80;;;1.45;;
37657;SDS011;23500;53.268;8.308;2024-03-23T03:51:13;1.98;;;1.15;;
37657;SDS011;23500;53.268;8.308;2024-03-23T03:53:39;2.20;;;1.30;;
37657;SDS011;23500;53.268;8.308;2024-03-23T03:56:05;1.13;;;1.00;;
37657;SDS011;23500;53.268;8.308;2024-03-23T03:58:31;1.75;;;1.08;;
37657;SDS011;23500;53.268;8.308;2024-03-23T04:00:57;1.27;;;1.15;;
37657;SDS011;23500;53.268;8.308;2024-03-23T04:03:23;1.10;;;1.00;;
37657;SDS011;23500;53.268;8.308;2024-03-23T04:05:52;2.15;;;1.30;;
37657;SDS011;23500;53.268;8.308;2024-03-23T04:08:18;1.20;;;1.10;;
37657;SDS011;23500;53.268;8.308;2024-03-23T04:10:44;1.17;;;1.05;;
37657;SDS011;23500;53.268;8.308;2024-03-23T04:13:10;1.10;;;1.00;;
37657;SDS011;23500;53.268;8.308;2024-03-23T04:15:36;1.42;;;0.93;;
37657;SDS011;23500;53.268;8.308;2024-03-23T04:18:02;2.58;;;1.25;;
37657;SDS011;23500;53.268;8.308;2024-03-23T04:20:28;2.00;;;1.10;;
37657;SDS011;23500;53.268;8.308;2024-03-23T04:22:54;1.13;;;1.00;;
37657;SDS011;23500;53.268;8.308;2024-03-23T04:25:19;1.90;;;1.40;;
37657;SDS011;23500;53.268;8.308;2024-03-23T04:27:45;1.60;;;1.10;;
37657;SDS011;23500;53.268;8.308;2024-03-23T04:30:11;1.17;;;1.08;;
37657;SDS011;23500;53.268;8.308;2024-03-23T04:32:38;1.33;;;1.10;;
37657;SDS011;23500;53.268;8.308;2024-03-23T04:35:04;1.25;;;1.00;;
37657;SDS011;23500;53.268;8.308;2024-03-23T04:37:37;1.20;;;1.10;;
37657;SDS011;23500;53.268;8.308;2024-03-23T04:40:03;1.50;;;1.20;;
37657;SDS011;23500;53.268;8.308;2024-03-23T04:42:29;1.75;;;1.20;;
37657;SDS011;23500;53.268;8.308;2024-03-23T04:44:56;1.30;;;1.15;;
37657;SDS011;23500;53.268;8.308;2024-03-23T04:47:21;1.60;;;1.20;;
37657;SDS011;23500;53.268;8.308;2024-03-23T04:49:47;1.63;;;1.38;;
37657;SDS011;23500;53.268;8.308;2024-03-23T04:52:13;1.25;;;1.00;;
37657;SDS011;23500;53.268;8.308;2024-03-23T04:54:39;1.10;;;1.00;;
37657;SDS011;23500;53.268;8.308;2024-03-23T04:57:07;1.20;;;1.10;;
37657;SDS011;23500;53.268;8.308;2024-03-23T04:59:33;1.30;;;1.00;;
37657;SDS011;23500;53.268;8.308;2024-03-23T05:01:59;1.33;;;1.20;;
37657;SDS011;23500;53.268;8.308;2024-03-23T05:04:25;1.15;;;1.02;;
37657;SDS011;23500;53.268;8.308;2024-03-23T05:06:51;1.08;;;0.95;;
37657;SDS011;23500;53.268;8.308;2024-03-23T05:09:17;1.52;;;1.15;;
37657;SDS011;23500;53.268;8.308;2024-03-23T05:11:42;1.20;;;1.10;;
37657;SDS011;23500;53.268;8.308;2024-03-23T05:14:08;2.00;;;1.17;;
37657;SDS011;23500;53.268;8.308;2024-03-23T05:16:34;0.90;;;0.90;;
37657;SDS011;23500;53.268;8.308;2024-03-23T05:18:59;1.80;;;1.40;;
37657;SDS011;23500;53.268;8.308;2024-03-23T05:21:25;1.67;;;1.10;;
37657;SDS011;23500;53.268;8.308;2024-03-23T05:23:53;1.45;;;1.00;;
37657;SDS011;23500;53.268;8.308;2024-03-23T05:26:19;1.58;;;1.10;;
37657;SDS011;23500;53.268;8.308;2024-03-23T05:28:45;1.15;;;1.02;;
37657;SDS011;23500;53.268;8.308;2024-03-23T05:31:10;1.13;;;1.00;;
37657;SDS011;23500;53.268;8.308;2024-03-23T05:33:36;1.00;;;0.95;;
37657;SDS011;23500;53.268;8.308;2024-03-23T05:36:05;1.80;;;1.20;;
37657;SDS011;23500;53.268;8.308;2024-03-23T05:38:33;1.73;;;1.30;;
37657;SDS011;23500;53.268;8.308;2024-03-23T05:40:59;1.20;;;1.10;;
37657;SDS011;23500;53.268;8.308;2024-03-23T05:43:26;1.00;;;0.90;;
37657;SDS011;23500;53.268;8.308;2024-03-23T05:45:58;1.48;;;1.00;;
37657;SDS011;23500;53.268;8.308;2024-03-23T05:48:25;1.17;;;0.80;;
37657;SDS011;23500;53.268;8.308;2024-03-23T05:50:51;1.00;;;0.90;;
37657;SDS011;23500;53.268;8.308;2024-03-23T05:53:17;1.73;;;1.17;;
37657;SDS011;23500;53.268;8.308;2024-03-23T05:55:46;1.17;;;0.80;;
37657;SDS011;23500;53.268;8.308;2024-03-23T05:58:16;1.25;;;0.90;;
37657;SDS011;23500;53.268;8.308;2024-03-23T06:00:43;1.05;;;0.90;;
37657;SDS011;23500;53.268;8.308;2024-03-23T06:03:09;1.40;;;0.90;;
37657;SDS011;23500;53.268;8.308;2024-03-23T06:05:35;1.40;;;0.90;;
37657;SDS011;23500;53.268;8.308;2024-03-23T06:08:04;0.75;;;0.68;;
37657;SDS011;23500;53.268;8.308;2024-03-23T06:10:30;0.98;;;0.90;;
37657;SDS011;23500;53.268;8.308;2024-03-23T06:12:59;1.13;;;0.82;;
37657;SDS011;23500;53.268;8.308;2024-03-23T06:15:24;1.65;;;0.90;;
37657;SDS011;23500;53.268;8.308;2024-03-23T06:17:51;0.70;;;0.70;;
37657;SDS011;23500;53.268;8.308;2024-03-23T06:20:16;1.10;;;0.80;;
37657;SDS011;23500;53.268;8.308;2024-03-23T06:22:42;1.00;;;0.80;;
37657;SDS011;23500;53.268;8.308;2024-03-23T06:25:08;1.20;;;1.00;;
37657;SDS011;23500;53.268;8.308;2024-03-23T06:27:34;0.63;;;0.63;;
37657;SDS011;23500;53.268;8.308;2024-03-23T06:29:59;0.98;;;0.70;;
37657;SDS011;23500;53.268;8.308;2024-03-23T06:32:26;0.88;;;0.80;;
37657;SDS011;23500;53.268;8.308;2024-03-23T06:34:52;0.95;;;0.90;;
37657;SDS011;23500;53.268;8.308;2024-03-23T06:37:18;1.17;;;0.75;;
37657;SDS011;23500;53.268;8.308;2024-03-23T06:39:45;1.00;;;0.90;;
37657;SDS011;23500;53.268;8.308;2024-03-23T06:42:12;1.30;;;0.90;;
37657;SDS011;23500;53.268;8.308;2024-03-23T06:44:38;0.98;;;0.80;;
37657;SDS011;23500;53.268;8.308;2024-03-23T06:47:05;1.50;;;0.98;;
37657;SDS011;23500;53.268;8.308;2024-03-23T06:49:30;1.02;;;0.75;;
37657;SDS011;23500;53.268;8.308;2024-03-23T06:51:56;1.30;;;0.80;;
37657;SDS011;23500;53.268;8.308;2024-03-23T06:54:22;1.95;;;1.00;;
37657;SDS011;23500;53.268;8.308;2024-03-23T06:56:49;1.17;;;0.85;;
37657;SDS011;23500;53.268;8.308;2024-03-23T06:59:14;1.30;;;0.90;;
37657;SDS011;23500;53.268;8.308;2024-03-23T07:01:40;0.82;;;0.80;;
37657;SDS011;23500;53.268;8.308;2024-03-23T07:04:07;1.00;;;0.90;;
37657;SDS011;23500;53.268;8.308;2024-03-23T07:06:33;1.23;;;0.90;;
37657;SDS011;23500;53.268;8.308;2024-03-23T07:08:58;0.95;;;0.70;;
37657;SDS011;23500;53.268;8.308;2024-03-23T07:11:24;1.13;;;0.95;;
37657;SDS011;23500;53.268;8.308;2024-03-23T07:13:51;2.45;;;1.10;;
37657;SDS011;23500;53.268;8.308;2024-03-23T07:16:17;1.25;;;0.90;;
37657;SDS011;23500;53.268;8.308;2024-03-23T07:18:43;0.70;;;0.70;;
37657;SDS011;23500;53.268;8.308;2024-03-23T07:21:09;1.13;;;0.70;;
37657;SDS011;23500;53.268;8.308;2024-03-23T07:23:34;1.45;;;1.00;;
37657;SDS011;23500;53.268;8.308;2024-03-23T07:26:01;1.15;;;0.82;;
37657;SDS011;23500;53.268;8.308;2024-03-23T07:28:29;1.05;;;0.95;;
37657;SDS011;23500;53.268;8.308;2024-03-23T07:31:03;1.35;;;0.90;;
37657;SDS011;23500;53.268;8.308;2024-03-23T07:33:29;1.92;;;0.80;;
37657;SDS011;23500;53.268;8.308;2024-03-23T07:35:55;1.58;;;1.10;;
37657;SDS011;23500;53.268;8.308;2024-03-23T07:38:21;0.93;;;0.80;;
37657;SDS011;23500;53.268;8.308;2024-03-23T07:40:46;1.17;;;0.90;;
37657;SDS011;23500;53.268;8.308;2024-03-23T07:43:15;1.15;;;1.00;;
37657;SDS011;23500;53.268;8.308;2024-03-23T07:45:40;1.20;;;0.90;;
37657;SDS011;23500;53.268;8.308;2024-03-23T07:48:06;1.13;;;0.70;;
37657;SDS011;23500;53.268;8.308;2024-03-23T07:50:32;1.38;;;0.90;;
37657;SDS011;23500;53.268;8.308;2024-03-23T07:52:57;1.08;;;0.95;;
37657;SDS011;23500;53.268;8.308;2024-03-23T07:55:23;1.20;;;1.00;;
37657;SDS011;23500;53.268;8.308;2024-03-23T07:57:50;1.10;;;0.70;;
37657;SDS011;23500;53.268;8.308;2024-03-23T08:00:16;1.17;;;0.85;;
37657;SDS011;23500;53.268;8.308;2024-03-23T08:02:42;1.83;;;1.00;;
37657;SDS011;23500;53.268;8.308;2024-03-23T08:05:08;0.80;;;0.80;;
37657;SDS011;23500;53.268;8.308;2024-03-23T08:07:34;0.98;;;0.70;;
37657;SDS011;23500;53.268;8.308;2024-03-23T08:10:00;1.63;;;0.98;;
37657;SDS011;23500;53.268;8.308;2024-03-23T08:12:28;1.42;;;0.80;;
37657;SDS011;23500;53.268;8.308;2024-03-23T08:14:54;2.03;;;1.05;;
37657;SDS011;23500;53.268;8.308;2024-03-23T08:17:19;1.20;;;0.80;;
37657;SDS011;23500;53.268;8.308;2024-03-23T08:19:45;1.42;;;0.85;;
37657;SDS011;23500;53.268;8.308;2024-03-23T08:22:11;1.08;;;0.90;;
37657;SDS011;23500;53.268;8.308;2024-03-23T08:24:36;0.95;;;0.80;;
37657;SDS011;23500;53.268;8.308;2024-03-23T08:27:02;1.25;;;0.90;;
37657;SDS011;23500;53.268;8.308;2024-03-23T08:29:29;2.30;;;1.10;;
37657;SDS011;23500;53.268;8.308;2024-03-23T08:31:55;1.50;;;1.02;;
37657;SDS011;23500;53.268;8.308;2024-03-23T08:34:21;1.45;;;1.10;;
37657;SDS011;23500;53.268;8.308;2024-03-23T08:36:46;1.40;;;0.90;;
37657;SDS011;23500;53.268;8.308;2024-03-23T08:39:12;1.60;;;0.85;;
37657;SDS011;23500;53.268;8.308;2024-03-23T08:41:38;0.85;;;0.75;;
37657;SDS011;23500;53.268;8.308;2024-03-23T08:44:03;1.30;;;0.95;;
37657;SDS011;23500;53.268;8.308;2024-03-23T08:46:29;1.15;;;0.82;;
37657;SDS011;23500;53.268;8.308;2024-03-23T08:48:55;1.23;;;0.80;;
37657;SDS011;23500;53.268;8.308;2024-03-23T08:51:20;1.67;;;0.88;;
37657;SDS011;23500;53.268;8.308;2024-03-23T08:53:46;2.25;;;1.15;;
37657;SDS011;23500;53.268;8.308;2024-03-23T08:56:12;1.40;;;1.00;;
37657;SDS011;23500;53.268;8.308;2024-03-23T08:58:38;1.92;;;0.95;;
37657;SDS011;23500;53.268;8.308;2024-03-23T09:01:06;1.55;;;0.90;;
37657;SDS011;23500;53.268;8.308;2024-03-23T09:03:33;1.45;;;1.00;;
37657;SDS011;23500;53.268;8.308;2024-03-23T09:05:59;1.33;;;0.82;;
37657;SDS011;23500;53.268;8.308;2024-03-23T09:08:25;2.05;;;1.20;;
37657;SDS011;23500;53.268;8.308;2024-03-23T09:10:51;1.45;;;1.10;;
37657;SDS011;23500;53.268;8.308;2024-03-23T09:13:17;2.33;;;0.90;;
37657;SDS011;23500;53.268;8.308;2024-03-23T09:15:49;1.85;;;0.98;;
37657;SDS011;23500;53.268;8.308;2024-03-23T09:18:15;1.17;;;0.75;;
37657;SDS011;23500;53.268;8.308;2024-03-23T09:20:42;1.55;;;0.90;;
37657;SDS011;23500;53.268;8.308;2024-03-23T09:23:08;1.10;;;0.80;;
37657;SDS011;23500;53.268;8.308;2024-03-23T09:25:37;1.63;;;1.00;;
37657;SDS011;23500;53.268;8.308;2024-03-23T09:28:04;1.10;;;0.82;;
37657;SDS011;23500;53.268;8.308;2024-03-23T09:30:30;1.00;;;0.70;;
37657;SDS011;23500;53.268;8.308;2024-03-23T09:32:57;1.65;;;0.90;;
37657;SDS011;23500;53.268;8.308;2024-03-23T09:35:23;1.73;;;0.90;;
37657;SDS011;23500;53.268;8.308;2024-03-23T09:37:49;1.55;;;0.80;;
37657;SDS011;23500;53.268;8.308;2024-03-23T09:40:14;1.40;;;1.00;;
37657;SDS011;23500;53.268;8.308;2024-03-23T09:42:40;1.15;;;0.90;;
37657;SDS011;23500;53.268;8.308;2024-03-23T09:45:21;1.38;;;1.00;;
37657;SDS011;23500;53.268;8.308;2024-03-23T09:47:51;1.30;;;0.80;;
37657;SDS011;23500;53.268;8.308;2024-03-23T09:50:18;1.55;;;1.00;;
37657;SDS011;23500;53.268;8.308;2024-03-23T09:52:45;3.85;;;1.00;;
37657;SDS011;23500;53.268;8.308;2024-03-23T09:55:11;2.03;;;1.10;;
37657;SDS011;23500;53.268;8.308;2024-03-23T09:57:37;2.13;;;0.90;;
37657;SDS011;23500;53.268;8.308;2024-03-23T10:00:03;1.63;;;0.80;;
37657;SDS011;23500;53.268;8.308;2024-03-23T10:02:29;1.70;;;1.00;;
37657;SDS011;23500;53.268;8.308;2024-03-23T10:04:55;2.03;;;0.88;;
37657;SDS011;23500;53.268;8.308;2024-03-23T10:07:22;1.17;;;0.90;;
37657;SDS011;23500;53.268;8.308;2024-03-23T10:09:48;1.20;;;0.98;;
37657;SDS011;23500;53.268;8.308;2024-03-23T10:12:16;2.63;;;1.15;;
37657;SDS011;23500;53.268;8.308;2024-03-23T10:14:43;1.48;;;0.93;;
37657;SDS011;23500;53.268;8.308;2024-03-23T10:17:11;1.23;;;0.85;;
37657;SDS011;23500;53.268;8.308;2024-03-23T10:19:48;2.35;;;0.98;;
37657;SDS011;23500;53.268;8.308;2024-03-23T10:22:17;1.20;;;0.90;;
37657;SDS011;23500;53.268;8.308;2024-03-23T10:24:44;1.30;;;0.80;;
37657;SDS011;23500;53.268;8.308;2024-03-23T10:27:12;2.25;;;1.20;;
37657;SDS011;23500;53.268;8.308;2024-03-23T10:29:53;2.15;;;1.10;;
37657;SDS011;23500;53.268;8.308;2024-03-23T10:32:42;2.20;;;1.00;;
37657;SDS011;23500;53.268;8.308;2024-03-23T10:35:17;1.77;;;1.10;;
37657;SDS011;23500;53.268;8.308;2024-03-23T10:37:44;1.02;;;0.70;;
37657;SDS011;23500;53.268;8.308;2024-03-23T10:40:12;1.42;;;1.00;;
37657;SDS011;23500;53.268;8.308;2024-03-23T10:42:38;2.15;;;1.30;;
37657;SDS011;23500;53.268;8.308;2024-03-23T10:45:05;1.40;;;0.80;;
37657;SDS011;23500;53.268;8.308;2024-03-23T10:47:32;1.65;;;1.00;;
37657;SDS011;23500;53.268;8.308;2024-03-23T10:49:59;1.45;;;0.95;;
37657;SDS011;23500;53.268;8.308;2024-03-23T10:52:25;1.50;;;0.85;;
37657;SDS011;23500;53.268;8.308;2024-03-23T10:54:51;2.25;;;1.10;;
37657;SDS011;23500;53.268;8.308;2024-03-23T10:57:27;1.75;;;0.90;;
37657;SDS011;23500;53.268;8.308;2024-03-23T11:00:02;3.22;;;1.65;;
37657;SDS011;23500;53.268;8.308;2024-03-23T11:02:29;2.63;;;0.93;;
37657;SDS011;23500;53.268;8.308;2024-03-23T11:04:55;1.90;;;0.85;;
37657;SDS011;23500;53.268;8.308;2024-03-23T11:09:58;1.40;;;0.98;;
37657;SDS011;23500;53.268;8.308;2024-03-23T11:12:25;1.80;;;1.17;;
37657;SDS011;23500;53.268;8.308;2024-03-23T11:17:24;2.20;;;0.90;;
37657;SDS011;23500;53.268;8.308;2024-03-23T11:20:00;1.40;;;0.95;;
37657;SDS011;23500;53.268;8.308;2024-03-23T11:25:23;1.90;;;1.10;;
37657;SDS011;23500;53.268;8.308;2024-03-23T11:27:51;1.83;;;1.08;;
37657;SDS011;23500;53.268;8.308;2024-03-23T11:32:45;1.90;;;1.00;;
37657;SDS011;23500;53.268;8.308;2024-03-23T11:35:31;1.30;;;1.00;;
37657;SDS011;23500;53.268;8.308;2024-03-23T11:40:44;1.73;;;0.73;;
37657;SDS011;23500;53.268;8.308;2024-03-23T11:43:18;1.40;;;0.85;;
37657;SDS011;23500;53.268;8.308;2024-03-23T11:45:45;1.27;;;0.88;;
37657;SDS011;23500;53.268;8.308;2024-03-23T11:48:12;2.10;;;0.98;;
37657;SDS011;23500;53.268;8.308;2024-03-23T11:50:39;1.30;;;0.93;;
37657;SDS011;23500;53.268;8.308;2024-03-23T11:53:19;1.55;;;1.00;;
37657;SDS011;23500;53.268;8.308;2024-03-23T11:55:56;0.90;;;0.88;;
37657;SDS011;23500;53.268;8.308;2024-03-23T11:58:24;1.60;;;0.82;;
37657;SDS011;23500;53.268;8.308;2024-03-23T12:03:30;2.10;;;0.90;;
37657;SDS011;23500;53.268;8.308;2024-03-23T12:05:59;1.40;;;0.90;;
37657;SDS011;23500;53.268;8.308;2024-03-23T12:08:30;1.42;;;0.90;;
37657;SDS011;23500;53.268;8.308;2024-03-23T12:11:07;1.60;;;1.10;;
37657;SDS011;23500;53.268;8.308;2024-03-23T12:13:36;1.27;;;0.90;;
37657;SDS011;23500;53.268;8.308;2024-03-23T12:16:11;1.40;;;1.00;;
37657;SDS011;23500;53.268;8.308;2024-03-23T12:18:40;2.00;;;1.20;;
37657;SDS011;23500;53.268;8.308;2024-03-23T12:21:07;1.45;;;0.93;;
37657;SDS011;23500;53.268;8.308;2024-03-23T12:23:33;1.60;;;0.98;;
37657;SDS011;23500;53.268;8.308;2024-03-23T12:25:59;2.55;;;1.00;;
37657;SDS011;23500;53.268;8.308;2024-03-23T12:28:25;1.73;;;0.90;;
37657;SDS011;23500;53.268;8.308;2024-03-23T12:30:51;2.25;;;0.90;;
37657;SDS011;23500;53.268;8.308;2024-03-23T12:33:22;1.00;;;0.70;;
37657;SDS011;23500;53.268;8.308;2024-03-23T12:35:48;0.75;;;0.70;;
37657;SDS011;23500;53.268;8.308;2024-03-23T12:38:15;2.45;;;1.20;;
37657;SDS011;23500;53.268;8.308;2024-03-23T12:40:41;1.10;;;0.88;;
37657;SDS011;23500;53.268;8.308;2024-03-23T12:43:07;1.52;;;1.05;;
37657;SDS011;23500;53.268;8.308;2024-03-23T12:45:33;2.33;;;0.95;;
37657;SDS011;23500;53.268;8.308;2024-03-23T12:47:59;2.25;;;1.05;;
37657;SDS011;23500;53.268;8.308;2024-03-23T12:50:24;1.58;;;0.90;;
37657;SDS011;23500;53.268;8.308;2024-03-23T12:52:50;1.17;;;0.82;;
37657;SDS011;23500;53.268;8.308;2024-03-23T12:55:16;2.33;;;1.08;;
37657;SDS011;23500;53.268;8.308;2024-03-23T12:57:42;3.45;;;1.08;;
37657;SDS011;23500;53.268;8.308;2024-03-23T13:00:08;4.55;;;0.95;;
37657;SDS011;23500;53.268;8.308;2024-03-23T13:02:36;2.40;;;0.90;;
37657;SDS011;23500;53.268;8.308;2024-03-23T13:05:05;1.20;;;1.00;;
37657;SDS011;23500;53.268;8.308;2024-03-23T13:07:33;1.40;;;0.82;;
37657;SDS011;23500;53.268;8.308;2024-03-23T13:09:58;1.88;;;1.00;;
37657;SDS011;23500;53.268;8.308;2024-03-23T13:12:24;1.58;;;0.93;;
37657;SDS011;23500;53.268;8.308;2024-03-23T13:14:50;1.33;;;1.10;;
37657;SDS011;23500;53.268;8.308;2024-03-23T13:17:15;0.90;;;0.80;;
37657;SDS011;23500;53.268;8.308;2024-03-23T13:19:41;1.85;;;0.90;;
37657;SDS011;23500;53.268;8.308;2024-03-23T13:22:07;2.53;;;1.30;;
37657;SDS011;23500;53.268;8.308;2024-03-23T13:24:33;1.60;;;1.13;;
37657;SDS011;23500;53.268;8.308;2024-03-23T13:26:59;1.48;;;0.95;;
37657;SDS011;23500;53.268;8.308;2024-03-23T13:29:25;1.48;;;1.00;;
37657;SDS011;23500;53.268;8.308;2024-03-23T13:31:51;1.60;;;1.00;;
37657;SDS011;23500;53.268;8.308;2024-03-23T13:34:17;1.20;;;0.80;;
37657;SDS011;23500;53.268;8.308;2024-03-23T13:36:47;2.10;;;1.00;;
37657;SDS011;23500;53.268;8.308;2024-03-23T13:39:13;1.70;;;0.90;;
37657;SDS011;23500;53.268;8.308;2024-03-23T13:41:43;1.38;;;0.90;;
37657;SDS011;23500;53.268;8.308;2024-03-23T13:44:13;0.93;;;0.82;;
37657;SDS011;23500;53.268;8.308;2024-03-23T13:46:42;1.92;;;0.98;;
37657;SDS011;23500;53.268;8.308;2024-03-23T13:49:27;0.93;;;0.82;;
37657;SDS011;23500;53.268;8.308;2024-03-23T13:51:54;1.67;;;0.98;;
37657;SDS011;23500;53.268;8.308;2024-03-23T13:54:21;1.60;;;0.95;;
37657;SDS011;23500;53.268;8.308;2024-03-23T13:56:53;2.03;;;1.05;;
37657;SDS011;23500;53.268;8.308;2024-03-23T13:59:20;1.65;;;0.80;;
37657;SDS011;23500;53.268;8.308;2024-03-23T14:01:48;2.03;;;0.90;;
37657;SDS011;23500;53.268;8.308;2024-03-23T14:04:14;2.05;;;0.85;;
37657;SDS011;23500;53.268;8.308;2024-03-23T14:06:44;2.03;;;0.80;;
37657;SDS011;23500;53.268;8.308;2024-03-23T14:09:13;1.48;;;0.90;;
37657;SDS011;23500;53.268;8.308;2024-03-23T14:11:39;1.67;;;0.95;;
37657;SDS011;23500;53.268;8.308;2024-03-23T14:14:08;2.42;;;0.88;;
37657;SDS011;23500;53.268;8.308;2024-03-23T14:16:34;1.98;;;0.80;;
37657;SDS011;23500;53.268;8.308;2024-03-23T14:19:00;1.23;;;0.90;;
37657;SDS011;23500;53.268;8.308;2024-03-23T14:21:26;1.83;;;0.85;;
37657;SDS011;23500;53.268;8.308;2024-03-23T14:23:52;1.90;;;0.90;;
37657;SDS011;23500;53.268;8.308;2024-03-23T14:26:19;1.05;;;0.80;;
37657;SDS011;23500;53.268;8.308;2024-03-23T14:28:45;2.25;;;0.88;;
37657;SDS011;23500;53.268;8.308;2024-03-23T14:31:11;1.63;;;0.80;;
37657;SDS011;23500;53.268;8.308;2024-03-23T14:33:37;1.05;;;0.80;;
37657;SDS011;23500;53.268;8.308;2024-03-23T14:36:03;0.98;;;0.80;;
37657;SDS011;23500;53.268;8.308;2024-03-23T14:38:30;1.60;;;0.98;;
37657;SDS011;23500;53.268;8.308;2024-03-23T14:40:59;0.93;;;0.80;;
37657;SDS011;23500;53.268;8.308;2024-03-23T14:43:25;2.97;;;1.00;;
37657;SDS011;23500;53.268;8.308;2024-03-23T14:46:06;1.27;;;0.85;;
37657;SDS011;23500;53.268;8.308;2024-03-23T14:48:39;1.90;;;0.85;;
37657;SDS011;23500;53.268;8.308;2024-03-23T14:51:06;1.67;;;0.80;;
37657;SDS011;23500;53.268;8.308;2024-03-23T14:53:33;1.17;;;0.80;;
37657;SDS011;23500;53.268;8.308;2024-03-23T14:56:05;1.77;;;0.80;;
37657;SDS011;23500;53.268;8.308;2024-03-23T14:58:32;1.52;;;0.73;;
37657;SDS011;23500;53.268;8.308;2024-03-23T15:01:06;1.17;;;0.80;;
37657;SDS011;23500;53.268;8.308;2024-03-23T15:03:36;1.80;;;0.73;;
37657;SDS011;23500;53.268;8.308;2024-03-23T15:06:04;1.90;;;0.80;;
37657;SDS011;23500;53.268;8.308;2024-03-23T15:08:30;1.75;;;0.75;;
37657;SDS011;23500;53.268;8.308;2024-03-23T15:10:59;0.80;;;0.70;;
37657;SDS011;23500;53.268;8.308;2024-03-23T15:13:30;0.82;;;0.82;;
37657;SDS011;23500;53.268;8.308;2024-03-23T15:15:59;1.65;;;0.75;;
37657;SDS011;23500;53.268;8.308;2024-03-23T15:18:24;1.85;;;0.70;;
37657;SDS011;23500;53.268;8.308;2024-03-23T15:23:19;1.80;;;1.00;;
37657;SDS011;23500;53.268;8.308;2024-03-23T15:25:45;1.25;;;0.70;;
37657;SDS011;23500;53.268;8.308;2024-03-23T15:28:11;1.73;;;0.90;;
37657;SDS011;23500;53.268;8.308;2024-03-23T15:30:36;2.15;;;0.95;;
37657;SDS011;23500;53.268;8.308;2024-03-23T15:33:02;1.63;;;0.77;;
37657;SDS011;23500;53.268;8.308;2024-03-23T15:35:28;1.00;;;0.65;;
37657;SDS011;23500;53.268;8.308;2024-03-23T15:37:54;1.42;;;0.68;;
37657;SDS011;23500;53.268;8.308;2024-03-23T15:40:19;1.05;;;0.90;;
37657;SDS011;23500;53.268;8.308;2024-03-23T15:42:45;0.82;;;0.70;;
37657;SDS011;23500;53.268;8.308;2024-03-23T15:45:11;1.73;;;0.95;;
37657;SDS011;23500;53.268;8.308;2024-03-23T15:47:37;2.20;;;0.80;;
37657;SDS011;23500;53.268;8.308;2024-03-23T15:50:03;0.65;;;0.50;;
37657;SDS011;23500;53.268;8.308;2024-03-23T15:52:33;1.40;;;0.80;;
37657;SDS011;23500;53.268;8.308;2024-03-23T15:55:05;2.05;;;0.80;;
37657;SDS011;23500;53.268;8.308;2024-03-23T15:57:34;2.58;;;0.80;;